sensor_id;sensor_type;location;lat;lon;timestamp;P1;durP1;ratioP1;P2;durP2;ratioP2
16403;SDS011;8311;50.158;8.642;2023-02-28T00:02:49;0.75;;;0.70;;
16403;SDS011;8311;50.158;8.642;2023-02-28T00:05:43;1.30;;;0.63;;
16403;SDS011;8311;50.158;8.642;2023-02-28T00:08:36;1.13;;;0.60;;
16403;SDS011;8311;50.158;8.642;2023-02-28T00:11:30;0.98;;;0.70;;
16403;SDS011;8311;50.158;8.642;2023-02-28T00:14:23;0.88;;;0.80;;
16403;SDS011;8311;50.158;8.642;2023-02-28T00:17:18;0.73;;;0.60;;
16403;SDS011;8311;50.158;8.642;2023-02-28T00:20:12;0.77;;;0.65;;
16403;SDS011;8311;50.158;8.642;2023-02-28T00:23:05;0.80;;;0.70;;
16403;SDS011;8311;50.158;8.642;2023-02-28T00:25:58;0.77;;;0.60;;
16403;SDS011;8311;50.158;8.642;2023-02-28T00:28:52;1.10;;;0.65;;
16403;SDS011;8311;50.158;8.642;2023-02-28T00:31:45;1.15;;;0.60;;
16403;SDS011;8311;50.158;8.642;2023-02-28T00:34:40;0.73;;;0.60;;
16403;SDS011;8311;50.158;8.642;2023-02-28T00:37:34;1.25;;;0.70;;
16403;SDS011;8311;50.158;8.642;2023-02-28T00:40:28;0.52;;;0.52;;
16403;SDS011;8311;50.158;8.642;2023-02-28T00:43:21;1.05;;;0.70;;
16403;SDS011;8311;50.158;8.642;2023-02-28T00:46:14;0.63;;;0.63;;
16403;SDS011;8311;50.158;8.642;2023-02-28T00:49:08;0.80;;;0.60;;
16403;SDS011;8311;50.158;8.642;2023-02-28T00:52:03;1.52;;;0.63;;
16403;SDS011;8311;50.158;8.642;2023-02-28T00:54:56;0.50;;;0.50;;
16403;SDS011;8311;50.158;8.642;2023-02-28T00:57:50;0.80;;;0.70;;
16403;SDS011;8311;50.158;8.642;2023-02-28T01:00:43;1.17;;;0.60;;
16403;SDS011;8311;50.158;8.642;2023-02-28T01:03:40;1.10;;;0.77;;
16403;SDS011;8311;50.158;8.642;2023-02-28T01:06:33;0.82;;;0.77;;
16403;SDS011;8311;50.158;8.642;2023-02-28T01:09:28;0.70;;;0.60;;
16403;SDS011;8311;50.158;8.642;2023-02-28T01:12:21;0.60;;;0.60;;
16403;SDS011;8311;50.158;8.642;2023-02-28T01:15:15;1.30;;;0.60;;
16403;SDS011;8311;50.158;8.642;2023-02-28T01:18:08;1.08;;;0.63;;
16403;SDS011;8311;50.158;8.642;2023-02-28T01:21:03;0.60;;;0.60;;
16403;SDS011;8311;50.158;8.642;2023-02-28T01:23:56;0.63;;;0.57;;
16403;SDS011;8311;50.158;8.642;2023-02-28T01:26:52;0.68;;;0.60;;
16403;SDS011;8311;50.158;8.642;2023-02-28T01:29:45;1.05;;;0.70;;
16403;SDS011;8311;50.158;8.642;2023-02-28T01:32:38;0.73;;;0.57;;
16403;SDS011;8311;50.158;8.642;2023-02-28T01:35:32;1.02;;;0.70;;
16403;SDS011;8311;50.158;8.642;2023-02-28T01:38:26;0.50;;;0.45;;
16403;SDS011;8311;50.158;8.642;2023-02-28T01:41:21;0.60;;;0.60;;
16403;SDS011;8311;50.158;8.642;2023-02-28T01:47:47;1.02;;;0.82;;
16403;SDS011;8311;50.158;8.642;2023-02-28T01:50:43;0.68;;;0.60;;
16403;SDS011;8311;50.158;8.642;2023-02-28T01:53:41;0.65;;;0.65;;
16403;SDS011;8311;50.158;8.642;2023-02-28T01:56:38;0.82;;;0.70;;
16403;SDS011;8311;50.158;8.642;2023-02-28T01:59:33;1.20;;;0.70;;
16403;SDS011;8311;50.158;8.642;2023-02-28T02:02:31;1.15;;;0.70;;
16403;SDS011;8311;50.158;8.642;2023-02-28T02:05:27;0.85;;;0.57;;
16403;SDS011;8311;50.158;8.642;2023-02-28T02:08:23;0.77;;;0.60;;
16403;SDS011;8311;50.158;8.642;2023-02-28T02:11:18;0.73;;;0.60;;
16403;SDS011;8311;50.158;8.642;2023-02-28T02:14:18;0.95;;;0.70;;
16403;SDS011;8311;50.158;8.642;2023-02-28T02:17:25;0.82;;;0.70;;
16403;SDS011;8311;50.158;8.642;2023-02-28T02:20:36;0.90;;;0.70;;
16403;SDS011;8311;50.158;8.642;2023-02-28T02:24:12;0.90;;;0.68;;
16403;SDS011;8311;50.158;8.642;2023-02-28T02:27:39;0.85;;;0.50;;
16403;SDS011;8311;50.158;8.642;2023-02-28T02:31:01;0.63;;;0.55;;
16403;SDS011;8311;50.158;8.642;2023-02-28T02:37:43;1.50;;;0.60;;
16403;SDS011;8311;50.158;8.642;2023-02-28T02:40:43;0.50;;;0.50;;
16403;SDS011;8311;50.158;8.642;2023-02-28T02:43:44;1.10;;;0.73;;
16403;SDS011;8311;50.158;8.642;2023-02-28T02:46:41;0.50;;;0.50;;
16403;SDS011;8311;50.158;8.642;2023-02-28T02:49:37;0.60;;;0.60;;
16403;SDS011;8311;50.158;8.642;2023-02-28T02:52:34;0.88;;;0.50;;
16403;SDS011;8311;50.158;8.642;2023-02-28T02:55:34;0.90;;;0.50;;
16403;SDS011;8311;50.158;8.642;2023-02-28T02:58:32;0.50;;;0.50;;
16403;SDS011;8311;50.158;8.642;2023-02-28T03:01:33;0.60;;;0.52;;
16403;SDS011;8311;50.158;8.642;2023-02-28T03:04:30;0.55;;;0.55;;
16403;SDS011;8311;50.158;8.642;2023-02-28T03:07:27;1.40;;;0.70;;
16403;SDS011;8311;50.158;8.642;2023-02-28T03:10:28;0.75;;;0.70;;
16403;SDS011;8311;50.158;8.642;2023-02-28T03:13:32;0.60;;;0.60;;
16403;SDS011;8311;50.158;8.642;2023-02-28T03:20:07;0.82;;;0.60;;
16403;SDS011;8311;50.158;8.642;2023-02-28T03:23:10;0.68;;;0.60;;
16403;SDS011;8311;50.158;8.642;2023-02-28T03:26:11;0.60;;;0.60;;
16403;SDS011;8311;50.158;8.642;2023-02-28T03:29:15;1.38;;;0.68;;
16403;SDS011;8311;50.158;8.642;2023-02-28T03:32:16;1.70;;;0.85;;
16403;SDS011;8311;50.158;8.642;2023-02-28T03:35:16;0.50;;;0.50;;
16403;SDS011;8311;50.158;8.642;2023-02-28T03:38:14;0.82;;;0.60;;
16403;SDS011;8311;50.158;8.642;2023-02-28T03:41:12;0.63;;;0.60;;
16403;SDS011;8311;50.158;8.642;2023-02-28T03:44:09;0.82;;;0.57;;
16403;SDS011;8311;50.158;8.642;2023-02-28T03:47:08;0.68;;;0.68;;
16403;SDS011;8311;50.158;8.642;2023-02-28T03:50:06;0.85;;;0.60;;
16403;SDS011;8311;50.158;8.642;2023-02-28T03:53:04;0.68;;;0.68;;
16403;SDS011;8311;50.158;8.642;2023-02-28T03:56:02;0.63;;;0.50;;
16403;SDS011;8311;50.158;8.642;2023-02-28T03:59:02;1.33;;;0.68;;
16403;SDS011;8311;50.158;8.642;2023-02-28T04:02:00;0.60;;;0.60;;
16403;SDS011;8311;50.158;8.642;2023-02-28T04:04:55;0.63;;;0.50;;
16403;SDS011;8311;50.158;8.642;2023-02-28T04:07:48;0.50;;;0.50;;
16403;SDS011;8311;50.158;8.642;2023-02-28T04:10:42;2.28;;;0.65;;
16403;SDS011;8311;50.158;8.642;2023-02-28T04:13:40;0.60;;;0.60;;
16403;SDS011;8311;50.158;8.642;2023-02-28T04:16:37;0.80;;;0.60;;
16403;SDS011;8311;50.158;8.642;2023-02-28T04:19:31;0.73;;;0.60;;
16403;SDS011;8311;50.158;8.642;2023-02-28T04:22:26;0.65;;;0.52;;
16403;SDS011;8311;50.158;8.642;2023-02-28T04:25:18;0.65;;;0.40;;
16403;SDS011;8311;50.158;8.642;2023-02-28T04:28:11;0.98;;;0.55;;
16403;SDS011;8311;50.158;8.642;2023-02-28T04:31:05;0.50;;;0.50;;
16403;SDS011;8311;50.158;8.642;2023-02-28T04:33:58;1.02;;;0.50;;
16403;SDS011;8311;50.158;8.642;2023-02-28T04:36:53;0.50;;;0.50;;
16403;SDS011;8311;50.158;8.642;2023-02-28T04:40:06;0.80;;;0.50;;
16403;SDS011;8311;50.158;8.642;2023-02-28T04:43:00;0.50;;;0.50;;
16403;SDS011;8311;50.158;8.642;2023-02-28T04:45:55;0.40;;;0.40;;
16403;SDS011;8311;50.158;8.642;2023-02-28T04:48:50;0.75;;;0.60;;
16403;SDS011;8311;50.158;8.642;2023-02-28T04:51:44;0.75;;;0.52;;
16403;SDS011;8311;50.158;8.642;2023-02-28T04:54:38;0.55;;;0.40;;
16403;SDS011;8311;50.158;8.642;2023-02-28T04:57:32;0.98;;;0.60;;
16403;SDS011;8311;50.158;8.642;2023-02-28T05:00:26;0.55;;;0.47;;
16403;SDS011;8311;50.158;8.642;2023-02-28T05:03:19;1.20;;;0.60;;
16403;SDS011;8311;50.158;8.642;2023-02-28T05:06:13;0.68;;;0.50;;
16403;SDS011;8311;50.158;8.642;2023-02-28T05:09:07;0.43;;;0.43;;
16403;SDS011;8311;50.158;8.642;2023-02-28T05:12:02;0.30;;;0.30;;
16403;SDS011;8311;50.158;8.642;2023-02-28T05:14:57;0.50;;;0.50;;
16403;SDS011;8311;50.158;8.642;2023-02-28T05:17:49;0.47;;;0.40;;
16403;SDS011;8311;50.158;8.642;2023-02-28T05:20:42;0.45;;;0.45;;
16403;SDS011;8311;50.158;8.642;2023-02-28T05:23:37;0.63;;;0.50;;
16403;SDS011;8311;50.158;8.642;2023-02-28T05:26:30;0.60;;;0.60;;
16403;SDS011;8311;50.158;8.642;2023-02-28T05:29:25;0.43;;;0.43;;
16403;SDS011;8311;50.158;8.642;2023-02-28T05:32:20;0.50;;;0.50;;
16403;SDS011;8311;50.158;8.642;2023-02-28T05:35:13;1.10;;;0.75;;
16403;SDS011;8311;50.158;8.642;2023-02-28T05:38:06;0.50;;;0.50;;
16403;SDS011;8311;50.158;8.642;2023-02-28T05:40:59;0.85;;;0.60;;
16403;SDS011;8311;50.158;8.642;2023-02-28T05:43:53;0.50;;;0.50;;
16403;SDS011;8311;50.158;8.642;2023-02-28T05:46:46;0.60;;;0.60;;
16403;SDS011;8311;50.158;8.642;2023-02-28T05:49:40;0.52;;;0.45;;
16403;SDS011;8311;50.158;8.642;2023-02-28T05:52:34;0.47;;;0.40;;
16403;SDS011;8311;50.158;8.642;2023-02-28T05:55:27;0.77;;;0.57;;
16403;SDS011;8311;50.158;8.642;2023-02-28T05:58:21;0.70;;;0.55;;
16403;SDS011;8311;50.158;8.642;2023-02-28T06:01:24;0.77;;;0.50;;
16403;SDS011;8311;50.158;8.642;2023-02-28T06:04:24;0.43;;;0.43;;
16403;SDS011;8311;50.158;8.642;2023-02-28T06:07:24;0.70;;;0.60;;
16403;SDS011;8311;50.158;8.642;2023-02-28T06:10:18;0.60;;;0.60;;
16403;SDS011;8311;50.158;8.642;2023-02-28T06:13:11;0.50;;;0.50;;
16403;SDS011;8311;50.158;8.642;2023-02-28T06:16:06;0.50;;;0.50;;
16403;SDS011;8311;50.158;8.642;2023-02-28T06:19:02;0.40;;;0.40;;
16403;SDS011;8311;50.158;8.642;2023-02-28T06:21:55;0.57;;;0.57;;
16403;SDS011;8311;50.158;8.642;2023-02-28T06:24:52;0.85;;;0.60;;
16403;SDS011;8311;50.158;8.642;2023-02-28T06:27:45;0.50;;;0.50;;
16403;SDS011;8311;50.158;8.642;2023-02-28T06:30:40;0.55;;;0.50;;
16403;SDS011;8311;50.158;8.642;2023-02-28T06:33:37;0.77;;;0.70;;
16403;SDS011;8311;50.158;8.642;2023-02-28T06:36:30;0.85;;;0.50;;
16403;SDS011;8311;50.158;8.642;2023-02-28T06:39:24;1.08;;;0.70;;
16403;SDS011;8311;50.158;8.642;2023-02-28T06:42:18;0.50;;;0.40;;
16403;SDS011;8311;50.158;8.642;2023-02-28T06:45:12;1.40;;;0.70;;
16403;SDS011;8311;50.158;8.642;2023-02-28T06:48:06;0.50;;;0.50;;
16403;SDS011;8311;50.158;8.642;2023-02-28T06:51:01;0.40;;;0.40;;
16403;SDS011;8311;50.158;8.642;2023-02-28T06:53:56;1.05;;;0.63;;
16403;SDS011;8311;50.158;8.642;2023-02-28T06:56:50;0.77;;;0.50;;
16403;SDS011;8311;50.158;8.642;2023-02-28T06:59:46;0.47;;;0.47;;
16403;SDS011;8311;50.158;8.642;2023-02-28T07:02:39;5.63;;;1.90;;
16403;SDS011;8311;50.158;8.642;2023-02-28T07:05:34;4.45;;;2.78;;
16403;SDS011;8311;50.158;8.642;2023-02-28T07:08:28;3.97;;;2.30;;
16403;SDS011;8311;50.158;8.642;2023-02-28T07:11:21;3.40;;;1.85;;
16403;SDS011;8311;50.158;8.642;2023-02-28T07:14:17;2.97;;;1.50;;
16403;SDS011;8311;50.158;8.642;2023-02-28T07:17:11;3.38;;;1.60;;
16403;SDS011;8311;50.158;8.642;2023-02-28T07:20:05;2.65;;;1.70;;
16403;SDS011;8311;50.158;8.642;2023-02-28T07:23:05;3.90;;;1.77;;
16403;SDS011;8311;50.158;8.642;2023-02-28T07:25:58;2.60;;;1.30;;
16403;SDS011;8311;50.158;8.642;2023-02-28T07:28:51;2.30;;;1.35;;
16403;SDS011;8311;50.158;8.642;2023-02-28T07:31:46;2.08;;;1.20;;
16403;SDS011;8311;50.158;8.642;2023-02-28T07:34:48;4.88;;;1.50;;
16403;SDS011;8311;50.158;8.642;2023-02-28T07:38:06;2.30;;;1.33;;
16403;SDS011;8311;50.158;8.642;2023-02-28T07:41:07;2.33;;;1.30;;
16403;SDS011;8311;50.158;8.642;2023-02-28T07:48:17;2.47;;;1.20;;
16403;SDS011;8311;50.158;8.642;2023-02-28T07:54:32;2.45;;;1.30;;
16403;SDS011;8311;50.158;8.642;2023-02-28T07:57:25;3.03;;;1.23;;
16403;SDS011;8311;50.158;8.642;2023-02-28T08:00:19;2.17;;;0.98;;
16403;SDS011;8311;50.158;8.642;2023-02-28T08:03:12;1.15;;;1.00;;
16403;SDS011;8311;50.158;8.642;2023-02-28T08:06:06;1.58;;;1.15;;
16403;SDS011;8311;50.158;8.642;2023-02-28T08:09:09;3.58;;;1.27;;
16403;SDS011;8311;50.158;8.642;2023-02-28T08:12:09;2.15;;;1.20;;
16403;SDS011;8311;50.158;8.642;2023-02-28T08:15:03;2.80;;;1.35;;
16403;SDS011;8311;50.158;8.642;2023-02-28T08:18:11;1.95;;;1.17;;
16403;SDS011;8311;50.158;8.642;2023-02-28T08:47:39;1.50;;;1.10;;
16403;SDS011;8311;50.158;8.642;2023-02-28T08:51:12;1.70;;;1.00;;
16403;SDS011;8311;50.158;8.642;2023-02-28T09:02:33;2.40;;;1.27;;
16403;SDS011;8311;50.158;8.642;2023-02-28T09:05:27;1.25;;;0.90;;
16403;SDS011;8311;50.158;8.642;2023-02-28T09:08:25;2.30;;;1.40;;
16403;SDS011;8311;50.158;8.642;2023-02-28T09:11:30;2.92;;;1.50;;
16403;SDS011;8311;50.158;8.642;2023-02-28T09:14:24;2.70;;;1.67;;
16403;SDS011;8311;50.158;8.642;2023-02-28T09:17:17;2.30;;;1.30;;
16403;SDS011;8311;50.158;8.642;2023-02-28T09:20:15;2.28;;;1.30;;
16403;SDS011;8311;50.158;8.642;2023-02-28T09:23:09;2.28;;;1.25;;
16403;SDS011;8311;50.158;8.642;2023-02-28T09:26:03;2.65;;;1.70;;
16403;SDS011;8311;50.158;8.642;2023-02-28T09:28:58;2.95;;;1.33;;
16403;SDS011;8311;50.158;8.642;2023-02-28T09:31:54;2.78;;;1.42;;
16403;SDS011;8311;50.158;8.642;2023-02-28T09:34:51;2.28;;;1.27;;
16403;SDS011;8311;50.158;8.642;2023-02-28T09:37:48;2.42;;;1.27;;
16403;SDS011;8311;50.158;8.642;2023-02-28T09:40:56;2.80;;;1.50;;
16403;SDS011;8311;50.158;8.642;2023-02-28T09:44:48;3.13;;;1.67;;
16403;SDS011;8311;50.158;8.642;2023-02-28T09:47:45;3.33;;;1.60;;
16403;SDS011;8311;50.158;8.642;2023-02-28T09:50:41;1.95;;;1.33;;
16403;SDS011;8311;50.158;8.642;2023-02-28T09:53:40;3.25;;;1.30;;
16403;SDS011;8311;50.158;8.642;2023-02-28T09:56:39;2.88;;;1.50;;
16403;SDS011;8311;50.158;8.642;2023-02-28T09:59:39;3.58;;;1.67;;
16403;SDS011;8311;50.158;8.642;2023-02-28T10:02:47;1.83;;;1.30;;
16403;SDS011;8311;50.158;8.642;2023-02-28T10:05:51;4.93;;;1.50;;
16403;SDS011;8311;50.158;8.642;2023-02-28T10:08:56;3.13;;;1.65;;
16403;SDS011;8311;50.158;8.642;2023-02-28T10:11:54;1.70;;;1.00;;
16403;SDS011;8311;50.158;8.642;2023-02-28T10:14:56;2.80;;;1.67;;
16403;SDS011;8311;50.158;8.642;2023-02-28T10:21:31;2.22;;;1.30;;
16403;SDS011;8311;50.158;8.642;2023-02-28T10:24:32;2.67;;;1.30;;
16403;SDS011;8311;50.158;8.642;2023-02-28T10:27:29;2.70;;;1.15;;
16403;SDS011;8311;50.158;8.642;2023-02-28T10:30:24;2.40;;;1.30;;
16403;SDS011;8311;50.158;8.642;2023-02-28T10:33:19;1.65;;;1.15;;
16403;SDS011;8311;50.158;8.642;2023-02-28T10:39:41;3.03;;;1.42;;
16403;SDS011;8311;50.158;8.642;2023-02-28T10:42:35;2.22;;;1.25;;
16403;SDS011;8311;50.158;8.642;2023-02-28T10:45:31;1.73;;;1.30;;
16403;SDS011;8311;50.158;8.642;2023-02-28T10:48:37;1.85;;;1.17;;
16403;SDS011;8311;50.158;8.642;2023-02-28T10:51:35;2.13;;;1.17;;
16403;SDS011;8311;50.158;8.642;2023-02-28T10:54:31;2.22;;;1.40;;
16403;SDS011;8311;50.158;8.642;2023-02-28T10:57:54;2.45;;;1.35;;
16403;SDS011;8311;50.158;8.642;2023-02-28T11:00:48;3.72;;;1.38;;
16403;SDS011;8311;50.158;8.642;2023-02-28T11:03:42;2.45;;;1.50;;
16403;SDS011;8311;50.158;8.642;2023-02-28T11:06:36;2.65;;;1.23;;
16403;SDS011;8311;50.158;8.642;2023-02-28T11:09:34;2.60;;;1.15;;
16403;SDS011;8311;50.158;8.642;2023-02-28T11:12:33;1.42;;;1.05;;
16403;SDS011;8311;50.158;8.642;2023-02-28T11:15:50;3.25;;;1.40;;
16403;SDS011;8311;50.158;8.642;2023-02-28T11:18:47;3.05;;;1.30;;
16403;SDS011;8311;50.158;8.642;2023-02-28T11:21:48;2.30;;;1.25;;
16403;SDS011;8311;50.158;8.642;2023-02-28T11:25:49;2.53;;;1.15;;
16403;SDS011;8311;50.158;8.642;2023-02-28T11:28:45;2.22;;;1.10;;
16403;SDS011;8311;50.158;8.642;2023-02-28T11:31:40;2.20;;;1.10;;
16403;SDS011;8311;50.158;8.642;2023-02-28T11:34:33;1.73;;;1.00;;
16403;SDS011;8311;50.158;8.642;2023-02-28T11:37:27;1.50;;;1.10;;
16403;SDS011;8311;50.158;8.642;2023-02-28T11:40:24;1.55;;;1.20;;
16403;SDS011;8311;50.158;8.642;2023-02-28T11:43:29;2.60;;;1.05;;
16403;SDS011;8311;50.158;8.642;2023-02-28T11:46:30;2.67;;;1.48;;
16403;SDS011;8311;50.158;8.642;2023-02-28T11:49:32;1.63;;;1.00;;
16403;SDS011;8311;50.158;8.642;2023-02-28T11:52:34;1.98;;;1.35;;
16403;SDS011;8311;50.158;8.642;2023-02-28T11:55:35;1.63;;;1.02;;
16403;SDS011;8311;50.158;8.642;2023-02-28T11:58:38;1.98;;;1.27;;
16403;SDS011;8311;50.158;8.642;2023-02-28T12:01:43;2.20;;;1.23;;
16403;SDS011;8311;50.158;8.642;2023-02-28T12:08:22;2.20;;;1.40;;
16403;SDS011;8311;50.158;8.642;2023-02-28T12:15:44;1.85;;;1.40;;
16403;SDS011;8311;50.158;8.642;2023-02-28T12:19:18;2.78;;;1.30;;
16403;SDS011;8311;50.158;8.642;2023-02-28T12:22:19;2.22;;;1.30;;
16403;SDS011;8311;50.158;8.642;2023-02-28T12:25:39;2.55;;;1.20;;
16403;SDS011;8311;50.158;8.642;2023-02-28T12:28:41;2.22;;;1.17;;
16403;SDS011;8311;50.158;8.642;2023-02-28T12:31:38;1.75;;;1.30;;
16403;SDS011;8311;50.158;8.642;2023-02-28T12:34:38;1.80;;;1.30;;
16403;SDS011;8311;50.158;8.642;2023-02-28T12:37:37;2.70;;;1.52;;
16403;SDS011;8311;50.158;8.642;2023-02-28T12:40:40;1.95;;;1.33;;
16403;SDS011;8311;50.158;8.642;2023-02-28T12:43:37;1.83;;;1.10;;
16403;SDS011;8311;50.158;8.642;2023-02-28T12:46:35;2.28;;;1.20;;
16403;SDS011;8311;50.158;8.642;2023-02-28T12:49:36;2.20;;;1.60;;
16403;SDS011;8311;50.158;8.642;2023-02-28T12:52:35;2.50;;;1.13;;
16403;SDS011;8311;50.158;8.642;2023-02-28T12:55:40;3.03;;;1.40;;
16403;SDS011;8311;50.158;8.642;2023-02-28T12:58:36;2.55;;;1.40;;
16403;SDS011;8311;50.158;8.642;2023-02-28T13:01:38;2.28;;;1.20;;
16403;SDS011;8311;50.158;8.642;2023-02-28T13:04:44;2.33;;;1.30;;
16403;SDS011;8311;50.158;8.642;2023-02-28T13:11:14;1.70;;;1.15;;
16403;SDS011;8311;50.158;8.642;2023-02-28T13:14:22;1.67;;;1.23;;
16403;SDS011;8311;50.158;8.642;2023-02-28T13:17:18;3.00;;;1.27;;
16403;SDS011;8311;50.158;8.642;2023-02-28T13:20:14;2.03;;;1.33;;
16403;SDS011;8311;50.158;8.642;2023-02-28T13:34:12;3.35;;;1.38;;
16403;SDS011;8311;50.158;8.642;2023-02-28T13:40:37;1.70;;;1.10;;
16403;SDS011;8311;50.158;8.642;2023-02-28T13:50:22;2.00;;;1.10;;
16403;SDS011;8311;50.158;8.642;2023-02-28T13:53:39;2.78;;;1.25;;
16403;SDS011;8311;50.158;8.642;2023-02-28T13:56:45;2.38;;;1.40;;
16403;SDS011;8311;50.158;8.642;2023-02-28T14:03:11;5.93;;;4.57;;
16403;SDS011;8311;50.158;8.642;2023-02-28T14:06:21;7.43;;;3.92;;
16403;SDS011;8311;50.158;8.642;2023-02-28T14:09:18;6.30;;;3.53;;
16403;SDS011;8311;50.158;8.642;2023-02-28T14:15:55;5.68;;;3.40;;
16403;SDS011;8311;50.158;8.642;2023-02-28T14:18:51;5.07;;;3.20;;
16403;SDS011;8311;50.158;8.642;2023-02-28T14:21:53;5.00;;;2.90;;
16403;SDS011;8311;50.158;8.642;2023-02-28T14:25:05;4.20;;;2.70;;
16403;SDS011;8311;50.158;8.642;2023-02-28T14:28:08;5.13;;;2.55;;
16403;SDS011;8311;50.158;8.642;2023-02-28T14:31:11;4.60;;;2.50;;
16403;SDS011;8311;50.158;8.642;2023-02-28T14:34:16;5.55;;;2.60;;
16403;SDS011;8311;50.158;8.642;2023-02-28T14:37:20;4.00;;;2.50;;
16403;SDS011;8311;50.158;8.642;2023-02-28T14:40:19;4.22;;;2.47;;
16403;SDS011;8311;50.158;8.642;2023-02-28T14:43:21;4.88;;;2.50;;
16403;SDS011;8311;50.158;8.642;2023-02-28T14:46:16;4.28;;;2.30;;
16403;SDS011;8311;50.158;8.642;2023-02-28T14:49:13;4.30;;;2.20;;
16403;SDS011;8311;50.158;8.642;2023-02-28T14:52:12;3.65;;;2.28;;
16403;SDS011;8311;50.158;8.642;2023-02-28T14:55:12;3.58;;;2.28;;
16403;SDS011;8311;50.158;8.642;2023-02-28T14:58:20;2.70;;;1.95;;
16403;SDS011;8311;50.158;8.642;2023-02-28T15:01:18;3.63;;;1.90;;
16403;SDS011;8311;50.158;8.642;2023-02-28T15:04:18;3.72;;;2.20;;
16403;SDS011;8311;50.158;8.642;2023-02-28T15:07:15;3.03;;;1.98;;
16403;SDS011;8311;50.158;8.642;2023-02-28T15:10:16;2.97;;;1.98;;
16403;SDS011;8311;50.158;8.642;2023-02-28T15:13:12;3.55;;;2.38;;
16403;SDS011;8311;50.158;8.642;2023-02-28T15:16:08;3.15;;;2.20;;
16403;SDS011;8311;50.158;8.642;2023-02-28T15:19:05;2.70;;;1.92;;
16403;SDS011;8311;50.158;8.642;2023-02-28T15:22:04;4.85;;;2.20;;
16403;SDS011;8311;50.158;8.642;2023-02-28T15:25:05;2.90;;;1.77;;
16403;SDS011;8311;50.158;8.642;2023-02-28T15:28:00;3.00;;;1.90;;
16403;SDS011;8311;50.158;8.642;2023-02-28T15:30:55;5.03;;;2.22;;
16403;SDS011;8311;50.158;8.642;2023-02-28T15:33:53;3.88;;;2.03;;
16403;SDS011;8311;50.158;8.642;2023-02-28T15:36:51;5.50;;;3.88;;
16403;SDS011;8311;50.158;8.642;2023-02-28T15:39:47;6.45;;;4.38;;
16403;SDS011;8311;50.158;8.642;2023-02-28T15:42:41;4.85;;;3.50;;
16403;SDS011;8311;50.158;8.642;2023-02-28T15:45:38;6.25;;;3.20;;
16403;SDS011;8311;50.158;8.642;2023-02-28T15:48:34;6.00;;;2.92;;
16403;SDS011;8311;50.158;8.642;2023-02-28T15:51:29;5.50;;;2.97;;
16403;SDS011;8311;50.158;8.642;2023-02-28T15:54:27;4.47;;;2.78;;
16403;SDS011;8311;50.158;8.642;2023-02-28T15:57:22;3.88;;;2.33;;
16403;SDS011;8311;50.158;8.642;2023-02-28T16:00:19;4.32;;;2.70;;
16403;SDS011;8311;50.158;8.642;2023-02-28T16:03:24;5.03;;;2.42;;
16403;SDS011;8311;50.158;8.642;2023-02-28T16:06:22;3.78;;;2.28;;
16403;SDS011;8311;50.158;8.642;2023-02-28T16:09:25;4.18;;;2.42;;
16403;SDS011;8311;50.158;8.642;2023-02-28T16:12:25;3.90;;;2.28;;
16403;SDS011;8311;50.158;8.642;2023-02-28T16:15:22;4.85;;;2.22;;
16403;SDS011;8311;50.158;8.642;2023-02-28T16:18:17;3.08;;;2.08;;
16403;SDS011;8311;50.158;8.642;2023-02-28T16:21:11;3.45;;;2.03;;
16403;SDS011;8311;50.158;8.642;2023-02-28T16:24:05;4.18;;;2.42;;
16403;SDS011;8311;50.158;8.642;2023-02-28T16:26:59;3.80;;;2.10;;
16403;SDS011;8311;50.158;8.642;2023-02-28T16:29:53;2.70;;;1.90;;
16403;SDS011;8311;50.158;8.642;2023-02-28T16:32:46;3.22;;;1.80;;
16403;SDS011;8311;50.158;8.642;2023-02-28T16:35:40;2.83;;;1.92;;
16403;SDS011;8311;50.158;8.642;2023-02-28T16:38:34;3.92;;;2.20;;
16403;SDS011;8311;50.158;8.642;2023-02-28T16:41:27;3.95;;;2.03;;
16403;SDS011;8311;50.158;8.642;2023-02-28T16:44:24;3.80;;;2.38;;
16403;SDS011;8311;50.158;8.642;2023-02-28T16:47:21;3.78;;;2.10;;
16403;SDS011;8311;50.158;8.642;2023-02-28T16:50:16;4.72;;;2.35;;
16403;SDS011;8311;50.158;8.642;2023-02-28T16:53:11;4.30;;;1.90;;
16403;SDS011;8311;50.158;8.642;2023-02-28T16:56:09;2.92;;;1.83;;
16403;SDS011;8311;50.158;8.642;2023-02-28T16:59:08;2.55;;;1.60;;
16403;SDS011;8311;50.158;8.642;2023-02-28T17:02:04;2.78;;;2.08;;
16403;SDS011;8311;50.158;8.642;2023-02-28T17:05:03;2.97;;;1.98;;
16403;SDS011;8311;50.158;8.642;2023-02-28T17:07:57;3.25;;;2.00;;
16403;SDS011;8311;50.158;8.642;2023-02-28T17:10:50;4.03;;;2.28;;
16403;SDS011;8311;50.158;8.642;2023-02-28T17:13:45;2.97;;;1.85;;
16403;SDS011;8311;50.158;8.642;2023-02-28T17:16:38;3.40;;;1.98;;
16403;SDS011;8311;50.158;8.642;2023-02-28T17:19:33;2.45;;;1.80;;
16403;SDS011;8311;50.158;8.642;2023-02-28T17:22:27;4.22;;;1.70;;
16403;SDS011;8311;50.158;8.642;2023-02-28T17:25:20;3.58;;;1.98;;
16403;SDS011;8311;50.158;8.642;2023-02-28T17:28:15;3.17;;;1.90;;
16403;SDS011;8311;50.158;8.642;2023-02-28T17:31:10;3.10;;;1.88;;
16403;SDS011;8311;50.158;8.642;2023-02-28T17:34:03;3.38;;;1.98;;
16403;SDS011;8311;50.158;8.642;2023-02-28T17:36:56;2.72;;;1.88;;
16403;SDS011;8311;50.158;8.642;2023-02-28T17:39:49;2.45;;;1.73;;
16403;SDS011;8311;50.158;8.642;2023-02-28T17:42:43;4.40;;;2.05;;
16403;SDS011;8311;50.158;8.642;2023-02-28T17:45:37;3.75;;;2.10;;
16403;SDS011;8311;50.158;8.642;2023-02-28T17:48:32;3.03;;;1.80;;
16403;SDS011;8311;50.158;8.642;2023-02-28T17:51:27;2.92;;;2.00;;
16403;SDS011;8311;50.158;8.642;2023-02-28T17:54:20;2.03;;;1.60;;
16403;SDS011;8311;50.158;8.642;2023-02-28T17:57:13;2.45;;;1.70;;
16403;SDS011;8311;50.158;8.642;2023-02-28T18:00:10;3.05;;;1.75;;
16403;SDS011;8311;50.158;8.642;2023-02-28T18:03:05;3.30;;;1.80;;
16403;SDS011;8311;50.158;8.642;2023-02-28T18:06:00;2.67;;;1.63;;
16403;SDS011;8311;50.158;8.642;2023-02-28T18:08:55;2.40;;;1.60;;
16403;SDS011;8311;50.158;8.642;2023-02-28T18:11:49;2.92;;;1.73;;
16403;SDS011;8311;50.158;8.642;2023-02-28T18:14:43;2.63;;;1.85;;
16403;SDS011;8311;50.158;8.642;2023-02-28T18:17:39;3.45;;;1.75;;
16403;SDS011;8311;50.158;8.642;2023-02-28T18:20:33;2.42;;;1.75;;
16403;SDS011;8311;50.158;8.642;2023-02-28T18:23:27;3.03;;;2.05;;
16403;SDS011;8311;50.158;8.642;2023-02-28T18:26:20;2.53;;;1.73;;
16403;SDS011;8311;50.158;8.642;2023-02-28T18:29:15;3.17;;;2.08;;
16403;SDS011;8311;50.158;8.642;2023-02-28T18:32:09;2.08;;;1.50;;
16403;SDS011;8311;50.158;8.642;2023-02-28T18:35:04;2.70;;;1.73;;
16403;SDS011;8311;50.158;8.642;2023-02-28T18:37:58;2.28;;;1.70;;
16403;SDS011;8311;50.158;8.642;2023-02-28T18:40:56;2.08;;;1.40;;
16403;SDS011;8311;50.158;8.642;2023-02-28T18:43:51;1.88;;;1.45;;
16403;SDS011;8311;50.158;8.642;2023-02-28T18:46:44;3.13;;;1.95;;
16403;SDS011;8311;50.158;8.642;2023-02-28T18:49:38;2.90;;;1.77;;
16403;SDS011;8311;50.158;8.642;2023-02-28T18:52:31;3.13;;;1.90;;
16403;SDS011;8311;50.158;8.642;2023-02-28T18:55:24;2.88;;;1.88;;
16403;SDS011;8311;50.158;8.642;2023-02-28T18:58:20;2.35;;;1.60;;
16403;SDS011;8311;50.158;8.642;2023-02-28T19:01:14;2.90;;;1.52;;
16403;SDS011;8311;50.158;8.642;2023-02-28T19:04:09;2.13;;;1.45;;
16403;SDS011;8311;50.158;8.642;2023-02-28T19:07:05;2.55;;;1.50;;
16403;SDS011;8311;50.158;8.642;2023-02-28T19:09:59;2.03;;;1.35;;
16403;SDS011;8311;50.158;8.642;2023-02-28T19:12:53;2.63;;;1.73;;
16403;SDS011;8311;50.158;8.642;2023-02-28T19:15:48;3.05;;;1.90;;
16403;SDS011;8311;50.158;8.642;2023-02-28T19:18:47;2.50;;;1.60;;
16403;SDS011;8311;50.158;8.642;2023-02-28T19:21:41;2.78;;;1.60;;
16403;SDS011;8311;50.158;8.642;2023-02-28T19:24:37;3.22;;;2.03;;
16403;SDS011;8311;50.158;8.642;2023-02-28T19:27:30;1.20;;;1.10;;
16403;SDS011;8311;50.158;8.642;2023-02-28T19:30:24;2.78;;;1.58;;
16403;SDS011;8311;50.158;8.642;2023-02-28T19:33:19;2.50;;;1.80;;
16403;SDS011;8311;50.158;8.642;2023-02-28T19:36:12;2.38;;;1.48;;
16403;SDS011;8311;50.158;8.642;2023-02-28T19:39:06;2.70;;;1.60;;
16403;SDS011;8311;50.158;8.642;2023-02-28T19:41:59;2.83;;;1.55;;
16403;SDS011;8311;50.158;8.642;2023-02-28T19:44:53;3.28;;;1.73;;
16403;SDS011;8311;50.158;8.642;2023-02-28T19:51:11;2.58;;;1.70;;